createdAt,value
2019-05-07T00:00:25.444Z,81.68
2019-05-07T00:01:25.841Z,81.78
2019-05-07T00:02:25.418Z,82.16
2019-05-07T00:03:25.414Z,82.26
2019-05-07T00:04:25.411Z,82.92
2019-05-07T00:05:25.402Z,82.73
2019-05-07T00:06:25.641Z,82.92
2019-05-07T00:07:25.389Z,82.73
2019-05-07T00:08:25.474Z,83.01
2019-05-07T00:09:25.771Z,82.16
2019-05-07T00:10:27.367Z,82.16
2019-05-07T00:11:25.379Z,82.73
2019-05-07T00:12:25.571Z,82.82
2019-05-07T00:13:25.098Z,83.49
2019-05-07T00:14:25.628Z,83.01
2019-05-07T00:15:25.479Z,83.49
2019-05-07T00:16:25.323Z,83.11
2019-05-07T00:17:25.381Z,83.3
2019-05-07T00:18:25.503Z,83.49
2019-05-07T00:19:25.380Z,83.87
2019-05-07T00:20:25.354Z,84.34
2019-05-07T00:21:25.908Z,84.72
2019-05-07T00:22:25.306Z,84.82
2019-05-07T00:23:25.710Z,84.82
2019-05-07T00:24:25.015Z,84.63
2019-05-07T00:25:25.388Z,85.3
2019-05-07T00:26:25.243Z,85.11
2019-05-07T00:27:25.368Z,85.96
2019-05-07T00:28:25.677Z,85.86
2019-05-07T00:29:25.361Z,85.58
2019-05-07T00:30:25.317Z,86.15
2019-05-07T00:31:25.832Z,86.91
2019-05-07T00:32:25.318Z,86.34
2019-05-07T00:33:25.317Z,85.68
2019-05-07T00:34:25.282Z,85.86
2019-05-07T00:35:25.298Z,85.86
2019-05-07T00:36:25.605Z,86.3
2019-05-07T00:37:25.278Z,86.2
2019-05-07T00:38:25.263Z,87.05
2019-05-07T00:39:25.280Z,87.24
2019-05-07T00:40:25.242Z,87.72
2019-05-07T00:41:25.467Z,87.53
2019-05-07T00:42:25.102Z,88.1
2019-05-07T00:43:25.233Z,88.39
2019-05-07T00:44:25.100Z,87.82
2019-05-07T00:45:26.311Z,88.01
2019-05-07T00:46:24.837Z,88.86
2019-05-07T00:47:25.081Z,88.86
2019-05-07T00:48:25.943Z,89.14
2019-05-07T00:49:24.815Z,89.43
2019-05-07T00:50:25.060Z,89.53
2019-05-07T00:51:25.124Z,89.14
2019-05-07T00:52:25.065Z,88.57
2019-05-07T00:53:25.911Z,88.76
2019-05-07T00:54:25.551Z,88.76
2019-05-07T00:55:25.229Z,88.76
2019-05-07T00:56:24.760Z,88.95
2019-05-07T00:57:25.389Z,88.95
2019-05-07T00:58:28.823Z,89.24
2019-05-07T00:59:25.094Z,89.24
2019-05-07T01:00:24.730Z,89.14
2019-05-07T01:01:25.279Z,89.53
2019-05-07T01:02:24.715Z,89.33
2019-05-07T01:03:24.707Z,89.81
2019-05-07T01:04:25.442Z,89.62
2019-05-07T01:05:25.576Z,89.72
2019-05-07T01:06:28.593Z,89.43
2019-05-07T01:07:25.453Z,89.62
2019-05-07T01:08:25.190Z,89.43
2019-05-07T01:09:25.411Z,89.62
2019-05-07T01:10:24.895Z,90.19
2019-05-07T01:11:25.198Z,90.09
2019-05-07T01:12:24.631Z,90.19
2019-05-07T01:13:25.952Z,91.33
2019-05-07T01:14:25.386Z,91.8
2019-05-07T01:15:34.581Z,91.42
2019-05-07T01:16:24.861Z,91.61
2019-05-07T01:17:25.282Z,92.28
2019-05-07T01:18:25.513Z,92.37
2019-05-07T01:19:24.575Z,92.47
2019-05-07T01:20:24.574Z,92.09
2019-05-07T01:21:25.207Z,91.99
2019-05-07T01:22:24.851Z,92.28
2019-05-07T01:23:25.420Z,92.18
2019-05-07T01:24:25.792Z,92.47
2019-05-07T01:25:24.532Z,92.85
2019-05-07T01:26:24.772Z,92.75
2019-05-07T01:27:25.175Z,92.75
2019-05-07T01:28:24.998Z,92.56
2019-05-07T01:29:25.536Z,92.28
2019-05-07T01:30:25.586Z,92.37
2019-05-07T01:31:24.744Z,92.85
2019-05-07T01:32:24.721Z,93.13
2019-05-07T01:33:24.934Z,92.94
2019-05-07T01:34:25.513Z,93.13
2019-05-07T01:35:24.883Z,93.13
2019-05-07T01:36:25.087Z,93.23
2019-05-07T01:37:25.573Z,94.08
2019-05-07T01:38:25.169Z,93.7
2019-05-07T01:39:25.657Z,93.99
2019-05-07T01:40:25.241Z,93.89
2019-05-07T01:41:25.528Z,94.65
2019-05-07T01:42:24.707Z,93.99
2019-05-07T01:43:25.284Z,93.89
2019-05-07T01:44:24.668Z,93.99
2019-05-07T01:45:27.476Z,94.08
2019-05-07T01:46:26.797Z,94.37
2019-05-07T01:47:25.973Z,94.37
2019-05-07T01:48:25.480Z,94.74
2019-05-07T01:49:26.512Z,94.84
2019-05-07T01:50:25.033Z,94.56
2019-05-07T01:51:24.732Z,94.93
2019-05-07T01:52:24.902Z,94.46
2019-05-07T01:53:25.260Z,94.56
2019-05-07T01:54:27.940Z,94.46
2019-05-07T01:55:24.863Z,94.37
2019-05-07T01:56:25.385Z,94.27
2019-05-07T01:57:25.609Z,94.46
2019-05-07T01:58:24.650Z,94.37
2019-05-07T01:59:25.042Z,94.93
2019-05-07T02:00:24.930Z,95.51
2019-05-07T02:01:24.676Z,95.6
2019-05-07T02:02:25.379Z,95.6
2019-05-07T02:03:25.293Z,95.6
2019-05-07T02:04:24.864Z,96.17
2019-05-07T02:05:25.318Z,96.08
2019-05-07T02:06:24.299Z,96.45
2019-05-07T02:07:25.163Z,96.36
2019-05-07T02:08:24.645Z,96.55
2019-05-07T02:09:24.970Z,96.17
2019-05-07T02:10:24.950Z,96.55
2019-05-07T02:11:24.151Z,96.45
2019-05-07T02:12:24.710Z,96.55
2019-05-07T02:13:24.811Z,96.17
2019-05-07T02:14:24.136Z,96.55
2019-05-07T02:15:25.096Z,96.55
2019-05-07T02:16:24.125Z,97.12
2019-05-07T02:17:25.051Z,97.12
2019-05-07T02:18:24.334Z,96.74
2019-05-07T02:19:24.466Z,97.31
2019-05-07T02:20:25.000Z,97.5
2019-05-07T02:21:24.579Z,97.78
2019-05-07T02:22:25.107Z,98.35
2019-05-07T02:23:24.616Z,98.68
2019-05-07T02:24:24.403Z,99.68
2019-05-07T02:25:24.419Z,98.64
2019-05-07T02:26:24.839Z,99.11
2019-05-07T02:27:24.357Z,99.02
2019-05-07T02:28:24.744Z,99.87
2019-05-07T02:29:24.985Z,99.82
2019-05-07T02:30:26.373Z,99.58
2019-05-07T02:31:25.749Z,99.77
2019-05-07T02:32:26.578Z,99.99
2019-05-07T02:33:25.226Z,99.99
2019-05-07T02:34:25.961Z,99.99
2019-05-07T02:35:25.984Z,99.99
2019-05-07T02:36:26.332Z,99.99
2019-05-07T02:37:35.340Z,99.99
2019-05-07T02:38:25.271Z,99.99
2019-05-07T02:39:26.592Z,99.99
2019-05-07T02:40:25.441Z,99.99
2019-05-07T02:41:25.629Z,99.99
2019-05-07T02:42:26.468Z,99.99
2019-05-07T02:43:25.319Z,99.99
2019-05-07T02:44:25.478Z,99.99
2019-05-07T02:45:26.511Z,99.99
2019-05-07T02:46:36.150Z,99.99
2019-05-07T02:47:26.151Z,99.99
2019-05-07T02:48:25.944Z,99.99
2019-05-07T02:49:26.026Z,99.99
2019-05-07T02:50:25.293Z,99.99
2019-05-07T02:51:26.508Z,99.99
2019-05-07T02:52:25.483Z,99.99
2019-05-07T02:53:25.294Z,99.99
2019-05-07T02:54:26.798Z,99.99
2019-05-07T02:55:25.730Z,99.99
2019-05-07T02:56:26.192Z,99.99
2019-05-07T02:57:26.356Z,99.99
2019-05-07T02:58:26.541Z,99.99
2019-05-07T02:59:25.882Z,99.99
2019-05-07T03:00:26.752Z,99.99
2019-05-07T03:01:24.920Z,99.99
2019-05-07T03:02:26.654Z,99.99
2019-05-07T03:03:27.103Z,99.99
2019-05-07T03:04:27.323Z,99.99
2019-05-07T03:05:25.598Z,99.99
2019-05-07T03:06:25.599Z,99.99
2019-05-07T03:07:26.416Z,99.99
2019-05-07T03:08:29.539Z,99.99
2019-05-07T03:09:25.012Z,99.99
2019-05-07T03:10:26.161Z,99.99
2019-05-07T03:11:25.379Z,99.99
2019-05-07T03:12:26.266Z,99.99
2019-05-07T03:13:26.331Z,99.99
2019-05-07T03:14:25.920Z,99.99
2019-05-07T03:15:26.675Z,99.99
2019-05-07T03:16:45.130Z,99.99
2019-05-07T03:17:26.912Z,99.99
2019-05-07T03:18:25.531Z,99.99
2019-05-07T03:19:26.747Z,99.99
2019-05-07T03:20:25.437Z,99.99
2019-05-07T03:21:26.094Z,99.99
2019-05-07T03:22:25.763Z,99.99
2019-05-07T03:23:25.077Z,99.99
2019-05-07T03:24:25.541Z,99.99
2019-05-07T03:25:25.352Z,99.99
2019-05-07T03:26:25.598Z,99.99
2019-05-07T03:27:25.764Z,99.99
2019-05-07T03:28:25.662Z,99.99
2019-05-07T03:29:26.213Z,99.99
2019-05-07T03:30:28.816Z,99.99
2019-05-07T03:31:28.839Z,99.99
2019-05-07T03:32:29.781Z,99.99
2019-05-07T03:33:28.932Z,99.99
2019-05-07T03:34:28.005Z,99.99
2019-05-07T03:35:29.619Z,99.99
2019-05-07T03:36:28.211Z,99.99
2019-05-07T03:37:25.942Z,99.99
2019-05-07T03:38:25.415Z,99.99
2019-05-07T03:39:26.353Z,99.99
2019-05-07T03:40:25.612Z,99.99
2019-05-07T03:41:25.240Z,99.99
2019-05-07T03:42:26.116Z,99.99
2019-05-07T03:43:25.355Z,99.99
2019-05-07T03:44:26.407Z,99.99
2019-05-07T03:45:25.567Z,99.99
2019-05-07T03:46:26.039Z,99.99
2019-05-07T03:47:26.405Z,99.99
2019-05-07T03:48:26.423Z,99.99
2019-05-07T03:49:24.987Z,99.99
2019-05-07T03:50:25.795Z,99.99
2019-05-07T03:51:25.965Z,99.99
2019-05-07T03:52:26.783Z,99.99
2019-05-07T03:53:25.480Z,99.99
2019-05-07T03:54:26.304Z,99.99
2019-05-07T03:55:29.198Z,99.99
2019-05-07T03:56:26.174Z,99.99
2019-05-07T03:57:26.072Z,99.99
2019-05-07T03:58:26.161Z,99.99
2019-05-07T03:59:25.728Z,99.99
2019-05-07T04:00:26.354Z,99.99
2019-05-07T04:01:26.138Z,99.99
2019-05-07T04:02:26.301Z,99.99
2019-05-07T04:03:27.042Z,99.99
2019-05-07T04:04:25.457Z,99.99
2019-05-07T04:05:25.455Z,99.99
2019-05-07T04:06:25.661Z,99.99
2019-05-07T04:07:25.837Z,99.99
2019-05-07T04:08:26.328Z,99.99
2019-05-07T04:09:26.187Z,99.99
2019-05-07T04:10:25.711Z,99.99
2019-05-07T04:11:25.419Z,99.99
2019-05-07T04:12:26.538Z,99.99
2019-05-07T04:13:26.389Z,99.99
2019-05-07T04:14:25.585Z,99.99
2019-05-07T04:15:25.788Z,99.99
2019-05-07T04:16:26.201Z,99.99
2019-05-07T04:17:28.171Z,99.99
2019-05-07T04:18:26.230Z,99.99
2019-05-07T04:19:25.886Z,99.99
2019-05-07T04:20:26.324Z,99.99
2019-05-07T04:21:25.420Z,99.99
2019-05-07T04:22:29.007Z,99.99
2019-05-07T04:23:25.805Z,99.99
2019-05-07T04:24:25.929Z,99.99
2019-05-07T04:25:26.048Z,99.99
2019-05-07T04:26:25.751Z,99.99
2019-05-07T04:27:26.146Z,99.99
2019-05-07T04:28:26.140Z,99.99
2019-05-07T04:29:25.322Z,99.99
2019-05-07T04:30:25.752Z,99.99
2019-05-07T04:31:25.504Z,99.99
2019-05-07T04:32:25.750Z,99.99
2019-05-07T04:33:26.034Z,99.99
2019-05-07T04:34:26.229Z,99.99
2019-05-07T04:35:24.379Z,99.99
2019-05-07T04:36:25.630Z,99.99
2019-05-07T04:37:26.318Z,99.99
2019-05-07T04:38:26.196Z,99.99
2019-05-07T04:39:25.797Z,99.99
2019-05-07T04:40:26.344Z,99.99
2019-05-07T04:41:25.895Z,99.87
2019-05-07T04:42:26.697Z,99.21
2019-05-07T04:43:25.616Z,99.97
2019-05-07T04:44:25.852Z,99.44
2019-05-07T04:45:25.603Z,99.44
2019-05-07T04:46:25.808Z,99.26
2019-05-07T04:47:43.848Z,98.88
2019-05-07T04:48:25.618Z,98.79
2019-05-07T04:49:25.930Z,98.5
2019-05-07T04:50:44.086Z,97.74
2019-05-07T04:51:25.359Z,98.79
2019-05-07T04:52:26.217Z,98.88
2019-05-07T04:53:26.170Z,98.97
2019-05-07T04:54:25.701Z,98.79
2019-05-07T04:55:25.179Z,99.73
2019-05-07T04:56:26.175Z,98.88
2019-05-07T04:57:26.034Z,98.59
2019-05-07T04:58:26.845Z,98.69
2019-05-07T04:59:26.063Z,98.54
2019-05-07T05:00:25.416Z,99.07
2019-05-07T05:01:25.876Z,99.16
2019-05-07T05:02:25.183Z,98.79
2019-05-07T05:03:26.014Z,99.54
2019-05-07T05:04:34.722Z,98.79
2019-05-07T05:05:25.900Z,98.79
2019-05-07T05:06:24.075Z,98.5
2019-05-07T05:07:24.995Z,98.79
2019-05-07T05:08:25.594Z,98.12
2019-05-07T05:09:25.566Z,97.74
2019-05-07T05:10:25.697Z,98.02
2019-05-07T05:11:25.959Z,97.83
2019-05-07T05:12:25.226Z,98.31
2019-05-07T05:13:25.910Z,98.79
2019-05-07T05:14:24.997Z,98.97
2019-05-07T05:15:24.644Z,99.16
2019-05-07T05:16:24.567Z,98.54
2019-05-07T05:17:24.807Z,98.69
2019-05-07T05:18:24.386Z,97.83
2019-05-07T05:19:23.043Z,97.27
2019-05-07T05:20:24.397Z,97.64
2019-05-07T05:21:25.161Z,96.79
2019-05-07T05:22:24.630Z,94.56
2019-05-07T05:23:25.138Z,92.94
2019-05-07T05:24:24.642Z,90.99
2019-05-07T05:25:25.115Z,89.47
2019-05-07T05:26:24.355Z,87.61
2019-05-07T05:27:24.915Z,87.32
2019-05-07T05:28:24.077Z,86.85
2019-05-07T05:29:25.147Z,87.23
2019-05-07T05:30:24.408Z,87.8
2019-05-07T05:31:24.742Z,88.42
2019-05-07T05:32:24.835Z,88.28
2019-05-07T05:33:23.399Z,87.76
2019-05-07T05:34:24.500Z,87.85
2019-05-07T05:35:24.661Z,87.57
2019-05-07T05:36:24.408Z,86.94
2019-05-07T05:37:25.003Z,87.23
2019-05-07T05:38:24.614Z,86.66
2019-05-07T05:39:24.828Z,86.94
2019-05-07T05:40:25.084Z,85.42
2019-05-07T05:41:25.009Z,85.14
2019-05-07T05:42:24.634Z,84.28
2019-05-07T05:43:24.817Z,84.23
2019-05-07T05:44:25.108Z,83.94
2019-05-07T05:45:24.244Z,84.28
2019-05-07T05:46:25.030Z,85.14
2019-05-07T05:47:24.398Z,85.04
2019-05-07T05:48:24.724Z,85.04
2019-05-07T05:49:23.010Z,84.85
2019-05-07T05:50:24.285Z,85.24
2019-05-07T05:51:25.120Z,85.52
2019-05-07T05:52:24.506Z,85.33
2019-05-07T05:53:24.076Z,85.04
2019-05-07T05:54:24.685Z,85.04
2019-05-07T05:55:25.036Z,84.38
2019-05-07T05:56:25.227Z,83.47
2019-05-07T05:57:22.987Z,82.51
2019-05-07T05:58:24.101Z,80.94
2019-05-07T05:59:46.845Z,78.65
2019-05-07T06:00:24.585Z,77.83
2019-05-07T06:01:24.987Z,77.74
2019-05-07T06:02:25.171Z,77.26
2019-05-07T06:03:25.049Z,76.79
2019-05-07T06:04:24.644Z,76.88
2019-05-07T06:05:24.555Z,76.88
2019-05-07T06:06:24.399Z,75.93
2019-05-07T06:07:24.779Z,74.44
2019-05-07T06:08:23.969Z,73.68
2019-05-07T06:09:24.178Z,71.81
2019-05-07T06:10:24.771Z,70.32
2019-05-07T06:11:24.063Z,68.88
2019-05-07T06:12:24.590Z,68.06
2019-05-07T06:13:23.057Z,67.3
2019-05-07T06:14:24.597Z,66.82
2019-05-07T06:15:24.682Z,65.67
2019-05-07T06:16:24.488Z,64.47
2019-05-07T06:17:24.777Z,64.18
2019-05-07T06:18:25.876Z,62.78
2019-05-07T06:19:24.675Z,62.01
2019-05-07T06:20:24.982Z,61.63
2019-05-07T06:21:24.086Z,60.61
2019-05-07T06:22:24.661Z,60.52
2019-05-07T06:23:24.840Z,61.09
2019-05-07T06:24:25.027Z,61.16
2019-05-07T06:25:26.900Z,62.21
2019-05-07T06:26:25.072Z,62.78
2019-05-07T06:27:22.895Z,63.6
2019-05-07T06:28:24.511Z,64.09
2019-05-07T06:29:25.351Z,65.1
2019-05-07T06:30:25.050Z,65.67
2019-05-07T06:31:24.632Z,66.69
2019-05-07T06:32:22.983Z,67.17
2019-05-07T06:33:23.112Z,67.65
2019-05-07T06:34:24.425Z,67.07
2019-05-07T06:35:22.940Z,67.65
2019-05-07T06:36:24.569Z,68.03
2019-05-07T06:37:24.863Z,68.85
2019-05-07T06:38:24.503Z,68.76
2019-05-07T06:39:24.592Z,69.23
2019-05-07T06:40:29.534Z,69.04
2019-05-07T06:41:22.751Z,68.85
2019-05-07T06:42:24.342Z,69.04
2019-05-07T06:43:24.336Z,68.22
2019-05-07T06:44:24.779Z,68.32
2019-05-07T06:45:22.803Z,68.28
2019-05-07T06:46:23.160Z,68.32
2019-05-07T06:47:24.335Z,68.95
2019-05-07T06:48:43.281Z,69.81
2019-05-07T06:49:24.674Z,69.62
2019-05-07T06:50:24.551Z,70.38
2019-05-07T06:51:24.559Z,70.67
2019-05-07T06:52:24.810Z,71.62
2019-05-07T06:53:24.619Z,71.62
2019-05-07T06:54:24.968Z,71.43
2019-05-07T06:55:22.901Z,70.47
2019-05-07T06:56:23.076Z,70.19
2019-05-07T06:57:24.605Z,69.9
2019-05-07T06:58:24.114Z,69.52
2019-05-07T06:59:24.807Z,68.51
2019-05-07T07:00:24.709Z,68.41
2019-05-07T07:01:22.841Z,68.22
2019-05-07T07:02:25.265Z,68.12
2019-05-07T07:03:24.646Z,68.22
2019-05-07T07:04:24.802Z,68.51
2019-05-07T07:05:28.121Z,67.46
2019-05-07T07:06:22.932Z,68.03
2019-05-07T07:07:36.459Z,67.65
2019-05-07T07:08:23.050Z,66.92
2019-05-07T07:09:24.350Z,66.72
2019-05-07T07:10:22.678Z,66.15
2019-05-07T07:11:24.820Z,66.35
2019-05-07T07:12:26.053Z,66.25
2019-05-07T07:13:22.943Z,66.41
2019-05-07T07:14:22.785Z,66.41
2019-05-07T07:15:23.163Z,66.41
2019-05-07T07:16:22.637Z,66.69
2019-05-07T07:17:24.708Z,67.27
2019-05-07T07:18:23.037Z,67.17
2019-05-07T07:19:23.244Z,67.65
2019-05-07T07:20:24.348Z,68.12
2019-05-07T07:21:24.453Z,67.46
2019-05-07T07:22:24.656Z,67.36
2019-05-07T07:23:25.023Z,67.27
2019-05-07T07:24:24.276Z,67.65
2019-05-07T07:25:22.861Z,67.4
2019-05-07T07:26:24.582Z,66.92
2019-05-07T07:27:25.204Z,66.63
2019-05-07T07:28:24.176Z,66.63
2019-05-07T07:29:24.440Z,66.15
2019-05-07T07:30:24.280Z,65.77
2019-05-07T07:31:26.291Z,65.33
2019-05-07T07:32:25.265Z,64.85
2019-05-07T07:33:24.842Z,64.75
2019-05-07T07:34:25.075Z,64.85
2019-05-07T07:35:22.587Z,63.7
2019-05-07T07:36:24.640Z,63.89
2019-05-07T07:37:22.902Z,63.99
2019-05-07T07:38:24.799Z,64.47
2019-05-07T07:39:24.433Z,64.09
2019-05-07T07:40:24.724Z,64.28
2019-05-07T07:41:24.641Z,63.32
2019-05-07T07:42:22.937Z,62.97
2019-05-07T07:43:24.275Z,62.68
2019-05-07T07:44:24.702Z,61.92
2019-05-07T07:45:23.096Z,62.24
2019-05-07T07:46:24.581Z,61.95
2019-05-07T07:47:24.716Z,61.95
2019-05-07T07:48:28.317Z,61.28
2019-05-07T07:49:24.390Z,60.99
2019-05-07T07:50:24.811Z,60.99
2019-05-07T07:51:42.622Z,59.84
2019-05-07T07:52:22.953Z,59.69
2019-05-07T07:53:24.825Z,58.73
2019-05-07T07:54:25.012Z,59.11
2019-05-07T07:55:24.635Z,58.83
2019-05-07T07:56:23.010Z,57.97
2019-05-07T07:57:23.994Z,57.99
2019-05-07T07:58:24.547Z,56.17
2019-05-07T07:59:24.532Z,55.88
2019-05-07T08:00:23.360Z,55.44
2019-05-07T08:01:22.598Z,54.38
2019-05-07T08:02:22.929Z,53.55
2019-05-07T08:03:24.966Z,53.16
2019-05-07T08:04:22.894Z,52.59
2019-05-07T08:05:24.383Z,51.65
2019-05-07T08:06:22.644Z,50.51
2019-05-07T08:07:22.910Z,49.76
2019-05-07T08:08:24.393Z,48.54
2019-05-07T08:09:26.365Z,48.07
2019-05-07T08:10:24.239Z,47.71
2019-05-07T08:11:24.430Z,48.25
2019-05-07T08:12:24.241Z,46.74
2019-05-07T08:13:22.872Z,47.2
2019-05-07T08:14:24.377Z,46.72
2019-05-07T08:15:26.535Z,47.1
2019-05-07T08:16:24.416Z,47.58
2019-05-07T08:17:24.707Z,47.87
2019-05-07T08:18:24.434Z,47.94
2019-05-07T08:19:26.569Z,48.13
2019-05-07T08:20:24.640Z,49.1
2019-05-07T08:21:24.755Z,48.9
2019-05-07T08:22:24.676Z,48.21
2019-05-07T08:23:22.675Z,47.66
2019-05-07T08:24:22.592Z,47.1
2019-05-07T08:25:24.255Z,46.07
2019-05-07T08:26:24.387Z,45.21
2019-05-07T08:27:24.283Z,45.01
2019-05-07T08:28:25.745Z,43.48
2019-05-07T08:29:24.837Z,42.61
2019-05-07T08:30:24.587Z,42.04
2019-05-07T08:31:22.632Z,41.49
2019-05-07T08:32:24.646Z,40.25
2019-05-07T08:33:24.790Z,39.39
2019-05-07T08:34:24.301Z,39.58
2019-05-07T08:35:24.415Z,39.49
2019-05-07T08:36:25.023Z,40.81
2019-05-07T08:37:24.454Z,40.52
2019-05-07T08:38:24.117Z,40.33
2019-05-07T08:39:27.182Z,39.37
2019-05-07T08:40:24.461Z,39.37
2019-05-07T08:41:24.892Z,37.74
2019-05-07T08:42:22.865Z,37.91
2019-05-07T08:43:24.322Z,39.43
2019-05-07T08:44:24.443Z,40.94
2019-05-07T08:45:26.649Z,42.07
2019-05-07T08:46:24.693Z,43.18
2019-05-07T08:47:22.864Z,44.31
2019-05-07T08:48:23.867Z,45.84
2019-05-07T08:49:39.786Z,45.34
2019-05-07T08:50:24.614Z,45.62
2019-05-07T08:51:24.712Z,46.39
2019-05-07T08:52:26.058Z,45.15
2019-05-07T08:53:24.828Z,45.07
2019-05-07T08:54:22.675Z,44.59
2019-05-07T08:55:24.229Z,44.67
2019-05-07T08:56:24.837Z,44.57
2019-05-07T08:57:25.121Z,44.67
2019-05-07T08:58:24.506Z,44.57
2019-05-07T08:59:24.737Z,44.19
2019-05-07T09:00:24.747Z,44.95
2019-05-07T09:01:24.256Z,45.03
2019-05-07T09:02:24.759Z,44.55
2019-05-07T09:03:27.266Z,44.17
2019-05-07T09:04:24.404Z,44.17
2019-05-07T09:05:24.480Z,44.74
2019-05-07T09:06:24.442Z,44.26
2019-05-07T09:07:24.119Z,44.26
2019-05-07T09:08:23.959Z,44.84
2019-05-07T09:09:24.674Z,44.74
2019-05-07T09:10:24.299Z,43.59
2019-05-07T09:11:23.014Z,42.35
2019-05-07T09:12:23.020Z,42.16
2019-05-07T09:13:22.651Z,41.39
2019-05-07T09:14:26.055Z,40.82
2019-05-07T09:15:22.739Z,38.54
2019-05-07T09:16:23.252Z,38.53
2019-05-07T09:17:22.926Z,39.48
2019-05-07T09:18:22.963Z,40.82
2019-05-07T09:19:24.155Z,41.28
2019-05-07T09:20:22.885Z,41.28
2019-05-07T09:21:22.744Z,41.18
2019-05-07T09:22:23.069Z,41.18
2019-05-07T09:23:24.688Z,42.61
2019-05-07T09:24:24.846Z,41.09
2019-05-07T09:25:24.695Z,41.18
2019-05-07T09:26:24.471Z,40.32
2019-05-07T09:27:24.644Z,40.32
2019-05-07T09:28:24.581Z,39.75
2019-05-07T09:29:24.542Z,39.47
2019-05-07T09:30:24.495Z,39.18
2019-05-07T09:31:22.747Z,39.37
2019-05-07T09:32:24.854Z,38.22
2019-05-07T09:33:22.658Z,38.03
2019-05-07T09:34:24.599Z,38.41
2019-05-07T09:35:24.116Z,37.38
2019-05-07T09:36:22.820Z,37.84
2019-05-07T09:37:22.696Z,37.84
2019-05-07T09:38:24.682Z,38.32
2019-05-07T09:39:24.236Z,39.18
2019-05-07T09:40:24.178Z,39.56
2019-05-07T09:41:24.425Z,39.94
2019-05-07T09:42:24.732Z,40.61
2019-05-07T09:43:24.131Z,39.37
2019-05-07T09:44:24.502Z,39.47
2019-05-07T09:45:24.823Z,39.18
2019-05-07T09:46:24.989Z,38.98
2019-05-07T09:47:24.114Z,39.27
2019-05-07T09:48:24.514Z,38.91
2019-05-07T09:49:24.393Z,39
2019-05-07T09:50:24.463Z,39
2019-05-07T09:51:22.658Z,38.62
2019-05-07T09:52:22.899Z,38.54
2019-05-07T09:53:22.811Z,37.59
2019-05-07T09:54:23.066Z,36.94
2019-05-07T09:55:23.291Z,36.17
2019-05-07T09:56:22.929Z,36.27
2019-05-07T09:57:34.695Z,35.88
2019-05-07T09:58:39.115Z,35.42
2019-05-07T09:59:24.278Z,35.52
2019-05-07T10:00:22.647Z,35.06
2019-05-07T10:01:23.639Z,34.87
2019-05-07T10:02:22.758Z,34.98
2019-05-07T10:03:22.811Z,34.22
2019-05-07T10:04:24.822Z,34.5
2019-05-07T10:05:22.222Z,34.02
2019-05-07T10:06:22.897Z,33.64
2019-05-07T10:07:24.812Z,33.81
2019-05-07T10:08:22.473Z,34.47
2019-05-07T10:09:24.672Z,35.14
2019-05-07T10:10:24.691Z,35.52
2019-05-07T10:11:24.873Z,36.19
2019-05-07T10:12:22.479Z,36.77
2019-05-07T10:13:22.579Z,36.57
2019-05-07T10:14:24.769Z,36
2019-05-07T10:15:22.577Z,35.14
2019-05-07T10:16:22.217Z,36.1
2019-05-07T10:17:24.745Z,36.67
2019-05-07T10:18:22.817Z,36.1
2019-05-07T10:19:24.621Z,36.17
2019-05-07T10:20:25.140Z,36.08
2019-05-07T10:21:24.544Z,37.04
2019-05-07T10:22:22.801Z,37.13
2019-05-07T10:23:25.178Z,37.13
2019-05-07T10:24:24.620Z,37.9
2019-05-07T10:25:24.582Z,37.7
2019-05-07T10:26:22.628Z,37.23
2019-05-07T10:27:24.259Z,37.04
2019-05-07T10:28:22.694Z,37.68
2019-05-07T10:29:22.680Z,37.97
2019-05-07T10:30:24.309Z,38.35
2019-05-07T10:31:24.746Z,38.26
2019-05-07T10:32:22.462Z,38.35
2019-05-07T10:33:22.834Z,38.07
2019-05-07T10:34:22.799Z,38.07
2019-05-07T10:35:22.973Z,37.9
2019-05-07T10:36:22.844Z,37.23
2019-05-07T10:37:22.217Z,36.75
2019-05-07T10:38:24.055Z,37.05
2019-05-07T10:39:24.160Z,36.67
2019-05-07T10:40:24.756Z,35.61
2019-05-07T10:41:24.493Z,35.9
2019-05-07T10:42:22.734Z,35.52
2019-05-07T10:43:24.592Z,35.61
2019-05-07T10:44:22.860Z,35.9
2019-05-07T10:45:24.063Z,35.71
2019-05-07T10:46:22.482Z,34.94
2019-05-07T10:47:24.623Z,35.52
2019-05-07T10:48:24.432Z,35.79
2019-05-07T10:49:22.617Z,36.17
2019-05-07T10:50:39.217Z,36.73
2019-05-07T10:51:24.262Z,37.02
2019-05-07T10:52:22.825Z,37.02
2019-05-07T10:53:22.931Z,36.73
2019-05-07T10:54:24.276Z,37.68
2019-05-07T10:55:24.623Z,38.05
2019-05-07T10:56:24.698Z,38.05
2019-05-07T10:57:24.675Z,38.34
2019-05-07T10:58:22.466Z,38.43
2019-05-07T10:59:24.857Z,38.98
2019-05-07T11:00:22.547Z,38.79
2019-05-07T11:01:24.810Z,38.6
2019-05-07T11:02:24.359Z,39.18
2019-05-07T11:03:24.361Z,40.23
2019-05-07T11:04:24.350Z,40.92
2019-05-07T11:05:24.291Z,40.53
2019-05-07T11:06:24.467Z,38.07
2019-05-07T11:07:24.555Z,37.23
2019-05-07T11:08:25.751Z,36.75
2019-05-07T11:09:24.493Z,36.19
2019-05-07T11:10:24.351Z,35.16
2019-05-07T11:11:22.468Z,34.58
2019-05-07T11:12:22.886Z,34.48
2019-05-07T11:13:24.334Z,36.3
2019-05-07T11:14:24.193Z,36.11
2019-05-07T11:15:24.529Z,36.21
2019-05-07T11:16:24.492Z,36.98
2019-05-07T11:17:24.766Z,35.06
2019-05-07T11:18:24.258Z,36.1
2019-05-07T11:19:24.227Z,39.25
2019-05-07T11:20:22.642Z,39.54
2019-05-07T11:21:24.551Z,37.82
2019-05-07T11:22:24.503Z,37.7
2019-05-07T11:23:24.580Z,37.51
2019-05-07T11:24:22.439Z,38.18
2019-05-07T11:25:24.615Z,38.56
2019-05-07T11:26:24.569Z,38.47
2019-05-07T11:27:24.911Z,39.04
2019-05-07T11:28:22.676Z,37.04
2019-05-07T11:29:24.193Z,36.27
2019-05-07T11:30:22.867Z,35.6
2019-05-07T11:31:24.776Z,35.41
2019-05-07T11:32:24.065Z,36.17
2019-05-07T11:33:24.463Z,36.27
2019-05-07T11:34:24.443Z,38.18
2019-05-07T11:35:25.276Z,37.04
2019-05-07T11:36:22.198Z,36.86
2019-05-07T11:37:24.952Z,36.19
2019-05-07T11:38:26.945Z,36.29
2019-05-07T11:39:22.648Z,35.61
2019-05-07T11:40:22.838Z,35.44
2019-05-07T11:41:22.933Z,34.2
2019-05-07T11:42:24.153Z,33.35
2019-05-07T11:43:24.378Z,32.78
2019-05-07T11:44:22.972Z,32.68
2019-05-07T11:45:22.796Z,33.45
2019-05-07T11:46:24.582Z,33.53
2019-05-07T11:47:22.559Z,33.72
2019-05-07T11:48:24.497Z,33.62
2019-05-07T11:49:24.831Z,34.22
2019-05-07T11:50:24.952Z,33.83
2019-05-07T11:51:23.092Z,33.92
2019-05-07T11:52:22.805Z,33.25
2019-05-07T11:53:24.447Z,33.92
2019-05-07T11:54:22.439Z,34.02
2019-05-07T11:55:24.769Z,33.45
2019-05-07T11:56:24.357Z,33.06
2019-05-07T11:57:24.548Z,32.7
2019-05-07T11:58:24.125Z,32.7
2019-05-07T11:59:24.383Z,32.7
2019-05-07T12:00:24.315Z,33.37
2019-05-07T12:01:24.577Z,35.19
2019-05-07T12:02:22.694Z,37.09
2019-05-07T12:03:24.499Z,36.71
2019-05-07T12:04:22.433Z,36.59
2019-05-07T12:05:22.728Z,37.74
2019-05-07T12:06:24.115Z,38.12
2019-05-07T12:07:24.682Z,37.36
2019-05-07T12:08:37.238Z,36.1
2019-05-07T12:09:24.010Z,36.19
2019-05-07T12:10:24.399Z,35.9
2019-05-07T12:11:24.356Z,36.08
2019-05-07T12:12:24.621Z,36.19
2019-05-07T12:13:24.286Z,36.19
2019-05-07T12:14:34.881Z,36.86
2019-05-07T12:15:24.189Z,35.81
2019-05-07T12:16:24.736Z,35.92
2019-05-07T12:17:24.737Z,35.83
2019-05-07T12:18:22.776Z,35.16
2019-05-07T12:19:22.686Z,34.87
2019-05-07T12:20:24.062Z,34.5
2019-05-07T12:21:25.974Z,33.92
2019-05-07T12:22:22.429Z,34.88
2019-05-07T12:23:22.666Z,34.98
2019-05-07T12:24:24.716Z,34.96
2019-05-07T12:25:22.429Z,35.75
2019-05-07T12:26:24.606Z,34.29
2019-05-07T12:27:23.051Z,35.73
2019-05-07T12:28:24.569Z,34.39
2019-05-07T12:29:24.204Z,34.2
2019-05-07T12:30:24.703Z,34.29
2019-05-07T12:31:24.813Z,34.39
2019-05-07T12:32:24.517Z,34.58
2019-05-07T12:33:22.178Z,34.2
2019-05-07T12:34:22.876Z,32.97
2019-05-07T12:35:24.371Z,33.45
2019-05-07T12:36:22.703Z,33.64
2019-05-07T12:37:22.549Z,33.35
2019-05-07T12:38:24.389Z,33.06
2019-05-07T12:39:24.364Z,33.16
2019-05-07T12:40:22.488Z,32.97
2019-05-07T12:41:24.467Z,33.06
2019-05-07T12:42:24.714Z,32.68
2019-05-07T12:43:22.190Z,34.22
2019-05-07T12:44:24.590Z,33.06
2019-05-07T12:45:22.924Z,34.12
2019-05-07T12:46:24.713Z,34.98
2019-05-07T12:47:24.114Z,33.64
2019-05-07T12:48:23.952Z,34.31
2019-05-07T12:49:24.516Z,33.16
2019-05-07T12:50:24.332Z,34.29
2019-05-07T12:51:37.628Z,36.3
2019-05-07T12:52:22.802Z,37.45
2019-05-07T12:53:22.496Z,34.48
2019-05-07T12:54:22.717Z,34.2